Time;durP1;ratioP1;P1;durP2;ratioP2;P2;SDS_P1;SDS_P2;PMS_P1;PMS_P2;Temp;Humidity;BMP_temperature;BMP_pressure;BME280_temperature;BME280_humidity;BME280_pressure;Samples;Min_cycle;Max_cycle;Signal;HPM_P1;HPM_P2
2021/09/06 00:01:02;;;;;;;;;24.00;22.00;;;;;19.61;69.08;101584.63;5057410;28;47022;-77
2021/09/06 00:03:28;;;;;;;;;21.00;21.00;;;;;19.57;69.41;101588.78;5058594;28;45307;-77
2021/09/06 00:05:57;;;;;;;;;21.00;20.67;;;;;19.51;69.42;101577.81;5058766;28;45370;-77
2021/09/06 00:08:23;;;;;;;;;24.33;23.67;;;;;19.54;69.78;101581.94;5059673;28;45507;-77
2021/09/06 00:11:01;;;;;;;;;19.00;18.67;;;;;19.50;68.95;101586.94;5058436;28;45659;-77
2021/09/06 00:13:27;;;;;;;;;24.00;23.33;;;;;19.42;69.76;101581.78;5058562;28;45485;-77
2021/09/06 00:15:53;;;;;;;;;21.00;19.67;;;;;19.39;69.75;101576.81;5058461;28;45507;-77
2021/09/06 00:18:22;;;;;;;;;26.00;22.67;;;;;19.36;70.03;101588.06;5058381;28;45565;-77
2021/09/06 00:20:47;;;;;;;;;23.67;23.33;;;;;19.34;69.73;101588.25;5058361;28;45517;-77
2021/09/06 00:23:14;;;;;;;;;24.67;24.33;;;;;19.29;69.54;101591.59;5058203;28;45278;-77
2021/09/06 00:25:42;;;;;;;;;23.67;21.67;;;;;19.29;69.46;101590.75;5058488;28;45209;-77
2021/09/06 00:28:17;;;;;;;;;23.67;23.00;;;;;19.30;69.70;101593.22;5058898;28;46006;-77
2021/09/06 00:30:48;;;;;;;;;22.00;21.33;;;;;19.28;69.67;101587.22;5058122;28;46601;-77
2021/09/06 00:33:14;;;;;;;;;23.67;22.00;;;;;19.26;69.30;101589.31;5058195;28;45240;-77
2021/09/06 00:35:43;;;;;;;;;24.00;23.33;;;;;19.27;69.71;101582.88;5058365;28;45397;-77
2021/09/06 00:38:09;;;;;;;;;22.00;20.67;;;;;19.23;69.84;101586.19;5057955;28;45529;-77
2021/09/06 00:40:34;;;;;;;;;24.00;21.00;;;;;19.23;69.48;101586.19;5057989;28;47586;-77
2021/09/06 00:43:00;;;;;;;;;22.33;22.33;;;;;19.17;69.51;101590.56;5058142;28;45327;-77
2021/09/06 00:45:26;;;;;;;;;20.33;20.00;;;;;19.12;69.50;101580.44;5058273;28;45295;-77
2021/09/06 00:48:14;;;;;;;;;20.67;19.67;;;;;19.16;69.87;101589.75;5058206;28;45278;-77
2021/09/06 00:50:53;;;;;;;;;24.00;24.00;;;;;19.13;69.99;101589.34;5058104;28;46713;-77
2021/09/06 00:53:19;;;;;;;;;18.00;18.00;;;;;19.10;69.10;101582.53;5057685;28;45355;-77
2021/09/06 00:55:45;;;;;;;;;27.33;24.33;;;;;19.12;69.38;101584.97;5058133;28;45279;-77
2021/09/06 00:58:12;;;;;;;;;19.33;17.67;;;;;19.07;69.79;101585.63;5057849;28;45275;-77
2021/09/06 01:00:38;;;;;;;;;21.00;20.33;;;;;19.09;69.93;101588.13;5057838;28;46427;-77
2021/09/06 01:03:03;;;;;;;;;22.33;22.33;;;;;19.02;69.84;101580.84;5059303;28;45276;-77
2021/09/06 01:05:29;;;;;;;;;22.33;22.33;;;;;19.01;70.03;101579.19;5058910;28;45298;-77
2021/09/06 01:07:57;;;;;;;;;22.00;21.67;;;;;19.05;70.07;101593.91;5061213;28;45560;-77
2021/09/06 01:10:23;;;;;;;;;21.00;21.00;;;;;19.09;69.55;101593.50;5062665;28;46480;-77
2021/09/06 01:12:49;;;;;;;;;22.33;20.67;;;;;19.09;69.78;101583.53;5061315;28;45357;-77
2021/09/06 01:15:15;;;;;;;;;22.33;21.33;;;;;19.08;68.94;101587.28;5061427;28;45322;-77
2021/09/06 01:17:42;;;;;;;;;21.67;21.67;;;;;19.10;69.35;101587.06;5061240;28;45578;-77
2021/09/06 01:20:10;;;;;;;;;21.00;21.00;;;;;19.03;69.22;101579.81;5061308;28;47814;-77
2021/09/06 01:22:42;;;;;;;;;22.67;22.33;;;;;19.02;69.79;101586.25;5061090;28;45359;-78
2021/09/06 01:25:27;;;;;;;;;23.67;20.00;;;;;18.98;69.86;101587.69;5061309;28;45285;-77
2021/09/06 01:28:05;;;;;;;;;22.00;19.67;;;;;18.95;70.10;101579.22;5055233;28;45464;-77
2021/09/06 01:30:31;;;;;;;;;20.00;19.67;;;;;18.87;69.71;101586.47;5070999;28;46380;-77
2021/09/06 01:32:59;;;;;;;;;25.67;23.33;;;;;18.85;70.22;101587.72;5081358;28;45421;-77
2021/09/06 01:35:25;;;;;;;;;20.67;20.67;;;;;18.86;70.28;101587.47;5081555;28;45303;-77
2021/09/06 01:37:51;;;;;;;;;19.67;19.67;;;;;18.84;70.18;101588.75;5080808;28;45475;-77
2021/09/06 01:40:18;;;;;;;;;23.00;22.00;;;;;18.87;70.21;101593.72;5081157;28;47792;-77
2021/09/06 01:42:44;;;;;;;;;21.33;21.33;;;;;18.82;70.25;101585.44;5081298;28;45484;-77
2021/09/06 01:45:13;;;;;;;;;21.00;20.00;;;;;18.80;70.35;101591.84;5081230;28;45358;-77
2021/09/06 01:47:42;;;;;;;;;25.67;24.33;;;;;18.73;70.02;101591.03;5080824;28;45560;-77
2021/09/06 01:50:11;;;;;;;;;21.00;21.00;;;;;18.71;70.24;101593.13;5080984;28;45629;-77
2021/09/06 01:52:42;;;;;;;;;25.33;24.33;;;;;18.67;70.33;101597.25;5082195;28;45379;-77
2021/09/06 01:55:08;;;;;;;;;19.67;19.00;;;;;18.68;70.23;101609.69;5081025;28;45310;-77
2021/09/06 01:57:34;;;;;;;;;23.00;21.33;;;;;18.60;70.33;101589.19;5080924;28;45356;-77
2021/09/06 02:00:00;;;;;;;;;27.00;25.67;;;;;18.60;70.53;101596.41;5080907;28;46629;-77
2021/09/06 02:02:26;;;;;;;;;21.33;20.00;;;;;18.60;70.33;101605.34;5080859;28;45485;-77
2021/09/06 02:04:52;;;;;;;;;23.33;23.33;;;;;18.60;70.84;101608.03;5079723;28;45489;-77
2021/09/06 02:07:20;;;;;;;;;20.33;19.33;;;;;18.59;70.83;101613.63;5080811;28;45531;-77
2021/09/06 02:09:49;;;;;;;;;24.33;23.33;;;;;18.54;71.16;101607.00;5080179;28;46629;-77
2021/09/06 02:12:18;;;;;;;;;25.00;22.67;;;;;18.57;71.43;101610.28;5080741;28;45274;-77
2021/09/06 02:14:43;;;;;;;;;25.00;23.00;;;;;18.50;71.23;101600.34;5080794;28;45332;-77
2021/09/06 02:17:09;;;;;;;;;25.33;25.33;;;;;18.52;71.36;101608.22;5078799;28;45602;-77
2021/09/06 02:19:35;;;;;;;;;23.67;21.67;;;;;18.46;71.36;101606.38;5080451;28;45426;-77
2021/09/06 02:22:00;;;;;;;;;25.00;25.00;;;;;18.43;71.03;101602.22;5082021;28;45314;-77
2021/09/06 02:24:26;;;;;;;;;25.33;23.33;;;;;18.41;71.34;101599.72;5082043;28;45235;-77
2021/09/06 02:26:52;;;;;;;;;23.00;23.00;;;;;18.37;71.57;101603.88;5080736;28;45908;-77
2021/09/06 02:29:18;;;;;;;;;24.33;24.00;;;;;18.37;71.56;101608.41;5080369;28;45493;-77
2021/09/06 02:31:47;;;;;;;;;25.67;23.33;;;;;18.36;71.49;101606.75;5060110;28;45275;-77
2021/09/06 02:34:13;;;;;;;;;25.00;25.00;;;;;18.35;71.88;101610.50;5060262;28;45304;-77
2021/09/06 02:36:41;;;;;;;;;24.33;22.67;;;;;18.32;71.56;101616.28;5059834;28;45369;-77
2021/09/06 02:39:07;;;;;;;;;27.00;26.00;;;;;18.27;71.82;101609.66;5059959;28;45503;-77
2021/09/06 02:41:33;;;;;;;;;25.00;25.00;;;;;18.25;71.69;101614.41;5059920;28;45386;-77
2021/09/06 02:43:58;;;;;;;;;22.67;22.67;;;;;18.22;71.82;101606.75;5059940;28;45264;-77
2021/09/06 02:46:29;;;;;;;;;24.00;21.67;;;;;18.25;71.72;101618.94;5059939;28;45459;-77
2021/09/06 02:48:55;;;;;;;;;24.00;21.33;;;;;18.20;71.72;101603.44;5059794;28;45355;-77
2021/09/06 02:51:21;;;;;;;;;22.67;22.33;;;;;18.24;71.82;101620.00;5059855;28;45554;-77
2021/09/06 02:53:56;;;;;;;;;23.00;21.00;;;;;18.16;71.84;101610.25;5060943;28;45300;-77
2021/09/06 02:56:21;;;;;;;;;23.00;22.67;;;;;18.17;72.42;101625.38;5059854;28;46807;-77
2021/09/06 02:58:47;;;;;;;;;27.33;26.33;;;;;18.16;72.06;101618.31;5059656;28;45303;-77
2021/09/06 03:01:13;;;;;;;;;21.67;21.33;;;;;18.09;72.13;101615.59;5059662;28;45274;-77
2021/09/06 03:03:44;;;;;;;;;25.33;24.33;;;;;18.08;72.08;101605.03;5059147;28;45207;-77
2021/09/06 03:06:12;;;;;;;;;28.67;27.00;;;;;18.08;72.14;101615.81;5059477;28;45516;-78
2021/09/06 03:08:38;;;;;;;;;27.00;25.67;;;;;18.05;72.19;101611.66;5059131;28;45738;-77
2021/09/06 03:11:42;;;;;;;;;22.00;22.00;;;;;18.07;72.31;101614.16;5060775;28;45208;-77
2021/09/06 03:14:07;;;;;;;;;19.67;19.33;;;;;18.01;72.30;101607.69;5059467;28;45295;-77
2021/09/06 03:16:36;;;;;;;;;26.33;24.67;;;;;18.02;72.55;101618.25;5059073;28;45595;-77
2021/09/06 03:19:02;;;;;;;;;23.67;23.00;;;;;18.01;72.48;101616.59;5059433;28;47627;-77
2021/09/06 03:21:28;;;;;;;;;27.33;26.67;;;;;17.96;72.71;101605.63;5059205;28;45257;-77
2021/09/06 03:23:54;;;;;;;;;22.33;21.67;;;;;18.00;72.31;101614.97;5059403;28;45362;-77
2021/09/06 03:26:20;;;;;;;;;24.33;24.33;;;;;17.95;72.32;101611.19;5059305;28;45386;-77
2021/09/06 03:28:48;;;;;;;;;30.33;29.33;;;;;17.95;72.39;101612.03;5059199;28;45644;-77
2021/09/06 03:31:14;;;;;;;;;24.00;24.00;;;;;17.88;72.85;101605.81;5075126;28;45300;-77
2021/09/06 03:33:40;;;;;;;;;24.33;22.67;;;;;17.92;72.89;101615.97;5079648;28;45271;-77
2021/09/06 03:36:09;;;;;;;;;25.67;25.67;;;;;17.86;73.06;101618.63;5079590;28;45576;-77
2021/09/06 03:38:34;;;;;;;;;23.00;22.00;;;;;17.84;72.86;101612.63;5079121;28;45605;-77
2021/09/06 03:41:00;;;;;;;;;23.00;23.00;;;;;17.82;72.91;101607.44;5079472;28;45342;-77
2021/09/06 03:43:26;;;;;;;;;25.00;24.00;;;;;17.80;73.17;101609.50;5079364;28;45160;-77
2021/09/06 03:45:52;;;;;;;;;24.67;23.67;;;;;17.77;73.19;101607.22;5079217;28;45810;-77
2021/09/06 03:48:21;;;;;;;;;28.33;25.00;;;;;17.79;73.40;101613.22;5079183;28;46551;-76
2021/09/06 03:50:49;;;;;;;;;25.00;24.67;;;;;17.75;73.15;101610.09;5079216;28;45366;-76
2021/09/06 03:53:20;;;;;;;;;21.33;21.33;;;;;17.76;73.45;101613.63;5078250;28;45271;-77
2021/09/06 03:55:45;;;;;;;;;30.00;27.00;;;;;17.71;73.42;101610.69;5079069;28;45469;-77
2021/09/06 03:58:13;;;;;;;;;27.67;26.67;;;;;17.70;73.11;101601.00;5078807;28;46781;-76
2021/09/06 04:00:42;;;;;;;;;25.67;25.67;;;;;17.71;73.69;101602.63;5078896;28;45358;-76
2021/09/06 04:03:07;;;;;;;;;22.00;22.00;;;;;17.72;73.21;101599.75;5079323;28;45270;-76
2021/09/06 04:05:33;;;;;;;;;25.00;24.67;;;;;17.73;73.35;101605.97;5078874;28;45275;-77
2021/09/06 04:07:59;;;;;;;;;28.00;27.00;;;;;17.65;73.21;101599.75;5078682;28;45622;-76
2021/09/06 04:10:25;;;;;;;;;26.00;23.00;;;;;17.63;73.45;101598.28;5080246;28;45238;-76
2021/09/06 04:12:50;;;;;;;;;23.33;23.33;;;;;17.62;73.50;101608.19;5079217;28;45565;-76
2021/09/06 04:15:16;;;;;;;;;26.67;26.33;;;;;17.61;73.46;101611.09;5078662;28;45531;-76
2021/09/06 04:17:42;;;;;;;;;28.67;26.67;;;;;17.57;73.92;101610.66;5078719;28;45435;-76
2021/09/06 04:20:09;;;;;;;;;31.67;29.67;;;;;17.52;73.41;101608.59;5078876;28;45397;-76
2021/09/06 04:22:34;;;;;;;;;29.33;27.67;;;;;17.51;73.71;101616.84;5078979;28;45367;-76
2021/09/06 04:25:03;;;;;;;;;25.33;25.33;;;;;17.51;74.06;101606.91;5078438;28;45279;-76
2021/09/06 04:27:28;;;;;;;;;23.33;23.33;;;;;17.54;73.83;101616.44;5078638;28;45524;-76
2021/09/06 04:29:54;;;;;;;;;26.00;26.00;;;;;17.46;74.00;101612.06;5073264;28;45770;-76
2021/09/06 04:32:20;;;;;;;;;26.67;26.67;;;;;17.44;73.67;101616.78;5058599;28;45316;-76
2021/09/06 04:34:47;;;;;;;;;26.67;25.00;;;;;17.41;74.22;101622.56;5058294;28;45555;-76
2021/09/06 04:37:23;;;;;;;;;26.00;26.00;;;;;17.43;74.08;101631.28;5058748;28;46282;-76
2021/09/06 04:39:49;;;;;;;;;26.00;26.00;;;;;17.44;73.97;101637.44;5057553;28;45431;-76
2021/09/06 04:42:18;;;;;;;;;24.00;24.00;;;;;17.39;73.78;101622.75;5058177;28;45363;-77
2021/09/06 04:44:44;;;;;;;;;23.33;22.00;;;;;17.39;73.83;101630.81;5058025;28;45954;-77
2021/09/06 04:47:09;;;;;;;;;26.00;23.00;;;;;17.38;73.76;101633.72;5058018;28;47171;-77
2021/09/06 04:49:35;;;;;;;;;26.00;26.00;;;;;17.35;73.66;101634.09;5058053;28;45407;-77
2021/09/06 04:52:13;;;;;;;;;24.00;23.33;;;;;17.36;74.07;101647.34;5058041;28;45280;-77
2021/09/06 04:54:39;;;;;;;;;25.67;25.00;;;;;17.35;73.70;101650.22;5057975;28;46028;-77
2021/09/06 04:57:05;;;;;;;;;28.00;25.00;;;;;17.32;73.84;101647.94;5057862;28;45981;-77
2021/09/06 04:59:38;;;;;;;;;30.00;29.67;;;;;17.30;74.07;101650.81;5057571;28;45275;-77
2021/09/06 05:02:04;;;;;;;;;28.33;25.33;;;;;17.31;73.73;101654.34;5057724;28;45514;-77
2021/09/06 05:04:32;;;;;;;;;36.00;31.67;;;;;17.23;73.98;101650.78;5057847;28;45348;-76
2021/09/06 05:07:01;;;;;;;;;29.67;28.33;;;;;17.21;74.42;101646.63;5057925;28;45799;-77
2021/09/06 05:09:26;;;;;;;;;30.00;29.00;;;;;17.23;74.11;101648.09;5057424;28;46249;-76
2021/09/06 05:11:52;;;;;;;;;29.00;28.67;;;;;17.28;74.37;101667.16;5058002;28;45370;-76
2021/09/06 05:14:17;;;;;;;;;24.67;24.33;;;;;17.20;74.02;101647.66;5057805;28;45248;-76
2021/09/06 05:16:43;;;;;;;;;31.67;28.67;;;;;17.20;73.98;101658.38;5057679;28;45506;-75
2021/09/06 05:19:08;;;;;;;;;28.67;28.33;;;;;17.16;73.85;101666.03;5059378;28;45284;-76
2021/09/06 05:21:34;;;;;;;;;25.00;25.00;;;;;17.18;74.76;101672.00;5057822;28;45321;-76
2021/09/06 05:24:00;;;;;;;;;27.00;27.00;;;;;17.12;74.71;101670.13;5057563;28;45513;-76
2021/09/06 05:26:28;;;;;;;;;28.00;26.00;;;;;17.16;74.81;101684.81;5057268;28;46838;-76
2021/09/06 05:28:55;;;;;;;;;26.00;26.00;;;;;17.11;75.04;101673.81;5057780;28;45278;-76
2021/09/06 05:31:21;;;;;;;;;28.67;26.67;;;;;17.13;74.50;101678.00;5074726;28;45299;-76
2021/09/06 05:33:46;;;;;;;;;26.00;25.67;;;;;17.11;74.72;101681.88;5077714;28;45550;-76
2021/09/06 05:36:13;;;;;;;;;25.33;25.33;;;;;17.15;74.75;101696.59;5077778;28;46599;-76
2021/09/06 05:38:55;;;;;;;;;24.67;24.67;;;;;17.12;74.96;101697.00;5078783;27;45330;-76
2021/09/06 05:41:22;;;;;;;;;28.00;27.33;;;;;17.15;74.92;101696.59;5077849;28;45374;-76
2021/09/06 05:43:48;;;;;;;;;23.00;23.00;;;;;17.16;74.83;101711.69;5078605;27;45311;-76
2021/09/06 05:46:14;;;;;;;;;31.00;30.00;;;;;17.15;75.02;101704.66;5077382;28;45521;-75
2021/09/06 05:48:40;;;;;;;;;29.00;28.00;;;;;17.16;75.02;101709.00;5077780;28;45327;-75
2021/09/06 05:51:05;;;;;;;;;30.67;29.67;;;;;17.20;75.13;101714.78;5077697;28;45319;-75
2021/09/06 05:53:31;;;;;;;;;27.00;27.00;;;;;17.19;75.08;101721.19;5081124;28;45189;-76
2021/09/06 05:55:57;;;;;;;;;28.67;27.00;;;;;17.14;74.87;101708.34;5080955;28;45782;-75
2021/09/06 05:58:22;;;;;;;;;27.00;27.00;;;;;17.20;75.00;101726.38;5083077;28;45141;-76
2021/09/06 06:00:48;;;;;;;;;30.33;29.33;;;;;17.27;75.00;101726.44;5082095;28;45260;-76
2021/09/06 06:03:13;;;;;;;;;33.33;31.33;;;;;17.27;74.78;101713.81;5082167;28;45237;-75
2021/09/06 06:05:39;;;;;;;;;34.00;31.67;;;;;17.32;74.81;101720.47;5081685;28;47428;-77
2021/09/06 06:08:04;;;;;;;;;30.00;28.33;;;;;17.35;74.63;101722.75;5082825;28;45391;-77
2021/09/06 06:10:30;;;;;;;;;29.67;28.67;;;;;17.36;74.92;101727.13;5082407;28;45400;-77
2021/09/06 06:12:55;;;;;;;;;33.00;30.00;;;;;17.39;74.58;101726.75;5082975;27;45441;-77
2021/09/06 06:15:21;;;;;;;;;32.00;31.00;;;;;17.44;74.82;101724.28;5082584;28;45433;-77
2021/09/06 06:17:46;;;;;;;;;24.33;23.67;;;;;17.47;74.74;101731.94;5082186;28;45337;-76
2021/09/06 06:20:12;;;;;;;;;28.00;27.67;;;;;17.50;75.01;101736.94;5083474;28;45275;-76
2021/09/06 06:22:38;;;;;;;;;28.00;27.33;;;;;17.56;75.08;101738.00;5086357;28;45214;-77
2021/09/06 06:25:04;;;;;;;;;28.67;27.67;;;;;17.58;74.54;101733.28;5083538;28;48127;-76
2021/09/06 06:27:29;;;;;;;;;30.00;27.00;;;;;17.62;74.63;101739.06;5084281;28;45903;-76
2021/09/06 06:29:55;;;;;;;;;30.33;29.00;;;;;17.64;74.30;101734.34;5076765;28;45384;-76
2021/09/06 06:32:24;;;;;;;;;29.00;27.33;;;;;17.67;74.79;101737.47;5064309;28;47218;-77
2021/09/06 06:34:52;;;;;;;;;30.33;29.00;;;;;17.67;74.43;101739.31;5065071;28;47589;-77
2021/09/06 06:37:21;;;;;;;;;25.00;25.00;;;;;17.70;74.54;101738.94;5067874;28;45403;-76
2021/09/06 06:39:46;;;;;;;;;30.67;27.67;;;;;17.74;75.01;101739.34;5061894;28;45801;-76
2021/09/06 06:42:12;;;;;;;;;26.00;23.67;;;;;17.73;74.76;101738.53;5060036;28;45966;-77
2021/09/06 06:44:39;;;;;;;;;28.33;27.33;;;;;17.80;74.78;101743.94;5059791;28;47456;-77
2021/09/06 06:47:05;;;;;;;;;28.00;26.00;;;;;17.84;74.72;101745.19;5060341;28;45317;-77
2021/09/06 06:49:30;;;;;;;;;29.00;29.00;;;;;17.90;74.82;101748.97;5063256;28;45331;-78
2021/09/06 06:51:56;;;;;;;;;41.00;34.00;;;;;17.94;74.48;101763.66;5063229;28;45454;-79
2021/09/06 06:54:21;;;;;;;;;64.00;50.50;;;;;17.99;74.09;101757.69;5063270;28;45290;-77
2021/09/06 06:56:47;;;;;;;;;36.67;33.33;;;;;18.07;74.31;101759.41;5063140;28;45230;-76
2021/09/06 06:59:12;;;;;;;;;32.33;29.00;;;;;18.15;74.28;101761.94;5061912;28;45290;-76
2021/09/06 07:01:37;;;;;;;;;28.67;28.00;;;;;18.17;73.83;101765.25;5062600;28;45338;-75
2021/09/06 07:04:04;;;;;;;;;26.67;26.00;;;;;18.25;73.89;101766.94;5061176;28;45331;-76
2021/09/06 07:06:29;;;;;;;;;27.00;26.33;;;;;18.34;73.79;101767.56;5060451;28;45337;-76
2021/09/06 07:08:55;;;;;;;;;30.00;29.00;;;;;18.39;73.63;101773.19;5062333;28;45307;-75
2021/09/06 07:11:20;;;;;;;;;26.67;24.33;;;;;18.44;73.56;101765.38;5062190;28;45313;-76
2021/09/06 07:13:45;;;;;;;;;22.00;21.33;;;;;18.51;73.16;101774.28;5060457;28;45385;-77
2021/09/06 07:16:11;;;;;;;;;28.00;27.00;;;;;18.55;73.44;101772.00;5060073;28;45279;-77
2021/09/06 07:18:40;;;;;;;;;29.00;28.00;;;;;18.60;73.69;101769.53;5058267;28;45493;-77
2021/09/06 07:21:05;;;;;;;;;21.67;21.67;;;;;18.65;73.58;101764.38;5059283;28;45307;-77
2021/09/06 07:23:31;;;;;;;;;29.00;26.33;;;;;18.74;73.54;101767.69;5058658;28;47940;-79
2021/09/06 07:25:59;;;;;;;;;22.67;22.67;;;;;18.77;73.72;101775.38;5060013;28;45405;-75
2021/09/06 07:28:24;;;;;;;;;26.33;25.00;;;;;18.84;73.54;101769.16;5060496;28;45343;-75
2021/09/06 07:30:50;;;;;;;;;37.67;33.67;;;;;18.85;73.65;101771.66;5073593;28;45403;-76
2021/09/06 07:33:15;;;;;;;;;29.33;28.33;;;;;18.96;73.07;101778.31;5078890;28;47280;-78
2021/09/06 07:35:43;;;;;;;;;66.75;52.50;;;;;19.00;72.91;101778.72;5058671;28;45208;-77
2021/09/06 07:38:09;;;;;;;;;44.00;37.33;;;;;19.07;72.85;101774.19;5058875;28;45295;-76
2021/09/06 07:40:35;;;;;;;;;25.00;25.00;;;;;19.15;73.00;101775.84;5060648;28;45569;-77
2021/09/06 07:43:03;;;;;;;;;24.00;24.00;;;;;19.23;72.94;101783.75;5058218;28;47325;-77
2021/09/06 07:45:29;;;;;;;;;24.33;24.33;;;;;19.30;72.94;101786.44;5057875;28;45409;-77
2021/09/06 07:47:54;;;;;;;;;22.00;22.00;;;;;19.35;72.97;101791.19;5060459;28;45264;-76
2021/09/06 07:50:20;;;;;;;;;20.33;20.33;;;;;19.39;72.93;101789.75;5061195;28;45392;-75
2021/09/06 07:52:47;;;;;;;;;20.00;20.00;;;;;19.41;72.82;101790.38;5060605;28;45359;-75
2021/09/06 07:55:12;;;;;;;;;24.00;21.67;;;;;19.48;73.21;101803.88;5061406;28;45540;-76
2021/09/06 07:57:38;;;;;;;;;26.33;26.00;;;;;19.50;73.18;101799.91;5062444;28;45220;-76
2021/09/06 08:00:05;;;;;;;;;23.67;22.67;;;;;19.59;72.94;101797.00;5062988;28;45423;-76
2021/09/06 08:02:38;;;;;;;;;28.67;27.00;;;;;19.62;72.62;101799.28;5062768;28;46912;-75
2021/09/06 08:05:03;;;;;;;;;22.33;22.33;;;;;19.71;72.79;101811.50;5061091;28;45229;-75
2021/09/06 08:07:29;;;;;;;;;23.33;23.33;;;;;19.80;72.24;101814.81;5060060;28;45295;-77
2021/09/06 08:09:59;;;;;;;;;33.00;31.33;;;;;19.88;71.76;101819.16;5059538;28;45291;-77
2021/09/06 08:12:24;;;;;;;;;43.33;34.67;;;;;19.93;71.69;101814.78;5058182;28;47022;-78
2021/09/06 08:14:50;;;;;;;;;23.67;23.33;;;;;19.99;71.39;101818.50;5054881;28;45458;-78
2021/09/06 08:17:16;;;;;;;;;30.00;27.33;;;;;20.08;71.67;101821.00;5056734;28;45366;-78
2021/09/06 08:19:41;;;;;;;;;29.00;25.00;;;;;20.09;71.20;101814.56;5060574;28;46397;-76
2021/09/06 08:22:07;;;;;;;;;38.00;32.67;;;;;20.21;70.35;101814.72;5061683;28;46698;-76
2021/09/06 08:24:33;;;;;;;;;39.33;34.67;;;;;20.26;69.85;101806.84;5059011;28;45240;-76
2021/09/06 08:26:58;;;;;;;;;26.00;26.00;;;;;20.38;70.37;101807.00;5060451;28;45318;-75
2021/09/06 08:29:27;;;;;;;;;24.33;23.33;;;;;20.51;70.56;101815.03;5063225;28;46072;-75
2021/09/06 08:31:53;;;;;;;;;25.00;23.67;;;;;20.55;70.14;101816.25;5079661;28;45614;-75
2021/09/06 08:34:19;;;;;;;;;24.67;23.00;;;;;20.64;69.15;101816.00;5080161;28;45361;-76
2021/09/06 08:36:44;;;;;;;;;25.33;24.00;;;;;20.77;68.64;101821.31;5081631;28;45294;-75
2021/09/06 08:39:10;;;;;;;;;24.33;24.33;;;;;20.90;69.53;101823.16;5083960;28;46263;-77
2021/09/06 08:41:36;;;;;;;;;49.33;41.33;;;;;20.96;69.43;101823.31;5068096;28;46231;-76
2021/09/06 08:44:03;;;;;;;;;53.67;42.33;;;;;20.96;68.27;101807.94;5060131;28;45294;-76
2021/09/06 08:46:29;;;;;;;;;48.33;39.67;;;;;21.05;68.65;101808.50;5057338;28;45308;-77
2021/09/06 08:48:55;;;;;;;;;48.33;40.67;;;;;21.12;68.40;101817.38;5056852;28;45564;-78
2021/09/06 08:51:20;;;;;;;;;55.00;44.67;;;;;21.19;68.39;101812.75;5059528;28;46042;-78
2021/09/06 08:53:46;;;;;;;;;25.67;25.00;;;;;21.25;67.96;101811.03;5054053;28;45893;-77
2021/09/06 08:56:14;;;;;;;;;36.67;31.67;;;;;21.36;67.83;101811.38;5058522;28;45401;-78
2021/09/06 08:58:40;;;;;;;;;27.00;25.67;;;;;21.44;67.85;101819.22;5057263;28;45529;-76
2021/09/06 09:01:06;;;;;;;;;24.67;24.00;;;;;21.48;67.27;101808.78;5057594;28;47047;-76
2021/09/06 09:03:32;;;;;;;;;25.33;25.33;;;;;21.61;67.37;101821.38;5057799;28;45267;-76
2021/09/06 09:05:59;;;;;;;;;22.67;21.67;;;;;21.71;67.12;101816.28;5058714;28;45238;-77
2021/09/06 09:08:25;;;;;;;;;33.33;30.33;;;;;21.75;66.91;101817.50;5056404;28;45585;-75
2021/09/06 09:10:55;;;;;;;;;33.33;31.00;;;;;21.82;67.29;101818.25;5056881;28;45487;-76
2021/09/06 09:13:21;;;;;;;;;33.33;29.67;;;;;21.92;67.12;101827.75;5057167;28;45383;-78
2021/09/06 09:15:54;;;;;;;;;22.33;21.33;;;;;21.98;66.92;101823.31;5057529;28;45371;-77
2021/09/06 09:18:34;;;;;;;;;24.00;23.67;;;;;22.04;65.78;101823.25;5057268;28;45309;-77
2021/09/06 09:21:05;;;;;;;;;26.33;23.67;;;;;22.10;66.27;101812.56;5057455;28;47623;-77
2021/09/06 09:23:50;;;;;;;;;26.00;24.00;;;;;22.20;66.49;101818.25;5056865;28;45244;-77
2021/09/06 09:26:16;;;;;;;;;38.00;33.67;;;;;22.31;66.14;101814.81;5056091;28;45571;-76
2021/09/06 09:28:47;;;;;;;;;23.67;22.33;;;;;22.39;65.16;101810.13;5060114;28;45465;-75
2021/09/06 09:31:16;;;;;;;;;25.00;23.00;;;;;22.52;64.80;101814.53;5076731;28;47321;-76
2021/09/06 09:33:53;;;;;;;;;29.67;26.67;;;;;22.63;64.81;101816.50;5072819;28;45454;-76
2021/09/06 09:36:34;;;;;;;;;26.67;24.67;;;;;22.78;64.41;101816.06;5060172;28;45247;-76
2021/09/06 09:39:05;;;;;;;;;20.67;19.00;;;;;22.89;63.88;101814.47;5062682;28;45450;-75
2021/09/06 09:41:30;;;;;;;;;34.33;30.33;;;;;22.95;63.54;101812.69;5062413;28;46399;-76
2021/09/06 09:44:11;;;;;;;;;34.33;29.00;;;;;23.03;63.06;101815.09;5060322;28;45339;-75
2021/09/06 09:46:38;;;;;;;;;25.33;25.33;;;;;23.21;61.83;101813.34;5060359;28;45334;-76
2021/09/06 09:49:14;;;;;;;;;21.00;19.67;;;;;23.33;61.73;101810.66;5060496;28;45573;-76
2021/09/06 09:51:40;;;;;;;;;21.00;19.67;;;;;23.43;61.47;101812.78;5062172;28;46279;-76
2021/09/06 09:54:07;;;;;;;;;19.00;19.00;;;;;23.60;61.46;101820.22;5060416;28;45336;-76
2021/09/06 09:56:33;;;;;;;;;32.00;30.33;;;;;23.70;59.75;101818.59;5059853;28;45363;-80
2021/09/06 09:58:59;;;;;;;;;16.67;16.67;;;;;23.81;59.10;101818.81;5062076;28;45359;-77
2021/09/06 10:01:30;;;;;;;;;23.67;23.67;;;;;23.94;58.12;101810.41;5062201;28;46149;-78
2021/09/06 10:03:59;;;;;;;;;19.67;19.67;;;;;24.06;57.86;101807.66;5062115;28;45284;-78
2021/09/06 10:06:27;;;;;;;;;29.67;28.67;;;;;24.19;57.19;101803.88;5060223;28;45331;-79
2021/09/06 10:08:56;;;;;;;;;42.33;34.33;;;;;24.40;56.82;101808.91;5059930;28;45410;-79
2021/09/06 10:11:33;;;;;;;;;27.33;26.00;;;;;24.58;55.78;101808.69;5060721;28;46647;-77
2021/09/06 10:14:10;;;;;;;;;19.67;19.67;;;;;24.78;55.95;101812.03;5060990;28;45379;-80
2021/09/06 10:16:37;;;;;;;;;19.67;18.67;;;;;24.97;55.68;101804.50;5060686;28;45414;-79
2021/09/06 10:19:07;;;;;;;;;23.67;22.00;;;;;25.11;55.41;101793.31;5065281;28;45890;-79
2021/09/06 10:21:48;;;;;;;;;15.33;15.33;;;;;25.35;54.60;101807.56;5064218;28;45247;-78
2021/09/06 10:24:16;;;;;;;;;20.33;20.33;;;;;25.50;54.92;101792.53;5063933;28;45345;-78
2021/09/06 10:26:44;;;;;;;;;20.67;20.67;;;;;25.65;54.51;101795.47;5063100;28;45339;-81
2021/09/06 10:29:19;;;;;;;;;47.67;39.33;;;;;25.85;53.80;101796.84;5063567;28;45719;-83
2021/09/06 10:31:57;;;;;;;;;17.67;17.67;;;;;26.00;52.56;101790.75;5042936;28;45391;-82
2021/09/06 10:34:23;;;;;;;;;19.33;18.67;;;;;26.22;52.23;101788.00;5042183;28;45395;-78
2021/09/06 10:37:15;;;;;;;;;19.00;19.00;;;;;26.43;52.18;101798.34;5042399;28;45280;-81
2021/09/06 10:39:46;;;;;;;;;24.33;23.00;;;;;26.57;51.87;101793.28;5037883;28;45435;-80
2021/09/06 10:42:15;;;;;;;;;18.00;17.00;;;;;26.72;52.08;101792.63;5043142;28;47297;-78
2021/09/06 10:44:41;;;;;;;;;38.33;31.33;;;;;26.87;52.81;101789.22;5044075;28;45273;-78
2021/09/06 10:47:11;;;;;;;;;21.00;20.00;;;;;27.08;51.19;101797.56;5056912;28;45220;-80
2021/09/06 10:49:43;;;;;;;;;36.00;31.67;;;;;27.25;51.21;101796.59;5062207;28;45545;-80
2021/09/06 10:52:10;;;;;;;;;24.33;23.00;;;;;27.33;49.80;101790.69;5060633;28;45400;-82
2021/09/06 10:54:38;;;;;;;;;21.67;19.00;;;;;27.43;50.82;101779.00;5061147;28;45375;-79
2021/09/06 10:57:07;;;;;;;;;25.67;24.67;;;;;27.61;50.66;101783.19;5061217;28;45417;-80
2021/09/06 10:59:33;;;;;;;;;17.00;16.67;;;;;27.73;49.95;101791.19;5065282;28;45224;-78
2021/09/06 11:01:59;;;;;;;;;23.00;23.00;;;;;27.83;50.58;101788.50;5068028;28;46177;-78
2021/09/06 11:04:27;;;;;;;;;23.67;22.00;;;;;27.96;50.04;101789.09;5067044;28;45301;-77
2021/09/06 11:07:06;;;;;;;;;24.67;24.00;;;;;28.10;49.43;101792.97;5066424;28;45474;-79
2021/09/06 11:09:34;;;;;;;;;12.00;12.00;;;;;28.09;48.56;101777.69;5061155;28;45832;-79
2021/09/06 11:12:06;;;;;;;;;18.67;17.00;;;;;28.12;49.24;101779.03;5060248;28;45244;-79